Terminal Aerodrome Forecast
Issued by NWS St Louis, MO

Home | Current Version | Previous Version | Text Only | Print | Product List | Glossary On
Versions: 1 2 3 4 5 6 7 8 9 10 11 12 13 14 15 16 17 18 19 20 21 22 23
000
FTUS43 KLSX 300200 AAB
TAFCOU
TAF AMD
KCOU 300208Z 3002/3024 33013KT P6SM BKN030
     FM300500 35010KT P6SM SCT030
     FM301200 02006KT P6SM FEW020
     FM301700 VRB04KT P6SM SKC=

USA.gov is the U.S. government's official web portal to all federal, state and local government web resources and services.